createdAt,value
2023-05-01T00:01:29.567Z,1.90
2023-05-01T00:03:56.918Z,1.77
2023-05-01T00:06:24.189Z,1.90
2023-05-01T00:08:51.218Z,1.80
2023-05-01T00:11:18.217Z,1.80
2023-05-01T00:13:45.212Z,2.00
2023-05-01T00:16:14.970Z,1.80
2023-05-01T00:18:42.038Z,1.90
2023-05-01T00:21:09.059Z,2.10
2023-05-01T00:23:36.249Z,1.70
2023-05-01T00:26:03.312Z,2.13
2023-05-01T00:28:30.259Z,2.07
2023-05-01T00:30:57.914Z,2.10
2023-05-01T00:33:24.936Z,1.90
2023-05-01T00:35:52.815Z,2.00
2023-05-01T00:38:19.816Z,2.20
2023-05-01T00:40:47.695Z,1.80
2023-05-01T00:43:14.731Z,2.90
2023-05-01T00:45:46.165Z,1.97
2023-05-01T00:48:14.915Z,1.97
2023-05-01T00:50:44.041Z,2.07
2023-05-01T00:53:12.585Z,1.70
2023-05-01T00:55:43.093Z,2.00
2023-05-01T00:58:12.327Z,2.00
2023-05-01T01:00:39.339Z,2.00
2023-05-01T01:03:06.617Z,1.77
2023-05-01T01:05:43.108Z,1.90
2023-05-01T01:08:31.332Z,2.00
2023-05-01T01:11:30.922Z,2.23
2023-05-01T01:14:21.084Z,2.37
2023-05-01T01:17:09.251Z,2.17
2023-05-01T01:19:49.304Z,1.90
2023-05-01T01:22:24.093Z,2.00
2023-05-01T01:24:57.815Z,2.10
2023-05-01T01:28:17.291Z,2.30
2023-05-01T01:31:10.941Z,1.80
2023-05-01T01:34:03.778Z,2.30
2023-05-01T01:36:40.945Z,2.20
2023-05-01T01:39:33.329Z,2.00
2023-05-01T01:42:01.338Z,2.00
2023-05-01T01:44:38.626Z,2.53
2023-05-01T01:47:12.238Z,2.17
2023-05-01T01:49:49.883Z,2.37
2023-05-01T01:52:20.349Z,2.63
2023-05-01T01:54:58.972Z,2.10
2023-05-01T01:57:28.023Z,2.10
2023-05-01T01:59:56.350Z,2.00
2023-05-01T02:02:27.269Z,2.70
2023-05-01T02:04:57.206Z,2.17
2023-05-01T02:07:26.812Z,2.17
2023-05-01T02:09:57.902Z,2.23
2023-05-01T02:12:27.101Z,2.20
2023-05-01T02:14:55.885Z,2.03
2023-05-01T02:17:24.291Z,2.07
2023-05-01T02:19:55.213Z,2.30
2023-05-01T02:22:25.961Z,2.23
2023-05-01T02:24:55.977Z,2.33
2023-05-01T02:27:38.214Z,2.40
2023-05-01T02:30:07.053Z,2.13
2023-05-01T02:32:34.396Z,2.03
2023-05-01T02:35:01.718Z,2.23
2023-05-01T02:37:30.797Z,2.50
2023-05-01T02:39:59.753Z,2.23
2023-05-01T02:42:28.662Z,2.43
2023-05-01T02:45:01.700Z,2.40
2023-05-01T02:47:34.872Z,2.37
2023-05-01T02:50:03.132Z,2.20
2023-05-01T02:52:31.658Z,2.63
2023-05-01T02:55:18.488Z,2.30
2023-05-01T02:57:45.917Z,2.03
2023-05-01T03:00:14.082Z,2.63
2023-05-01T03:02:42.343Z,2.60
2023-05-01T03:05:09.836Z,2.27
2023-05-01T03:07:37.053Z,2.53
2023-05-01T03:10:07.950Z,2.33
2023-05-01T03:12:35.703Z,2.27
2023-05-01T03:15:02.686Z,2.40
2023-05-01T03:17:31.103Z,2.40
2023-05-01T03:19:58.548Z,2.20
2023-05-01T03:22:29.809Z,2.30
2023-05-01T03:24:56.776Z,2.60
2023-05-01T03:27:23.755Z,2.47
2023-05-01T03:29:52.349Z,2.23
2023-05-01T03:32:19.662Z,2.80
2023-05-01T03:34:48.478Z,2.67
2023-05-01T03:37:16.585Z,2.27
2023-05-01T03:39:43.689Z,2.33
2023-05-01T03:42:29.092Z,2.20
2023-05-01T03:45:01.533Z,2.60
2023-05-01T03:47:29.810Z,2.87
2023-05-01T03:49:57.191Z,2.93
2023-05-01T03:52:24.564Z,2.70
2023-05-01T03:54:52.378Z,2.70
2023-05-01T03:57:27.464Z,2.90
2023-05-01T03:59:54.905Z,3.00
2023-05-01T04:02:22.285Z,2.57
2023-05-01T04:04:50.548Z,3.40
2023-05-01T04:07:17.906Z,2.80
2023-05-01T04:09:48.359Z,3.00
2023-05-01T04:12:15.293Z,2.90
2023-05-01T04:14:43.298Z,2.80
2023-05-01T04:17:11.519Z,2.80
2023-05-01T04:19:41.315Z,2.43
2023-05-01T04:22:08.361Z,3.03
2023-05-01T04:24:36.722Z,2.80
2023-05-01T04:27:04.740Z,2.50
2023-05-01T04:29:32.356Z,2.60
2023-05-01T04:31:59.493Z,2.37
2023-05-01T04:34:29.401Z,2.80
2023-05-01T04:36:57.372Z,2.97
2023-05-01T04:39:24.734Z,2.73
2023-05-01T04:41:51.956Z,2.60
2023-05-01T04:44:19.020Z,2.73
2023-05-01T04:46:46.860Z,2.67
2023-05-01T04:49:14.724Z,2.90
2023-05-01T04:51:41.953Z,2.77
2023-05-01T04:54:11.878Z,2.97
2023-05-01T04:56:39.991Z,3.10
2023-05-01T04:59:06.986Z,2.83
2023-05-01T05:01:34.445Z,2.97
2023-05-01T05:04:01.774Z,3.30
2023-05-01T05:06:29.801Z,2.70
2023-05-01T05:08:57.871Z,3.20
2023-05-01T05:11:26.603Z,3.47
2023-05-01T05:14:16.946Z,3.47
2023-05-01T05:16:44.138Z,2.90
2023-05-01T05:19:11.223Z,3.10
2023-05-01T05:21:41.801Z,3.17
2023-05-01T05:24:11.022Z,3.37
2023-05-01T05:26:38.267Z,3.27
2023-05-01T05:29:06.211Z,3.40
2023-05-01T05:31:33.231Z,3.27
2023-05-01T05:34:00.429Z,3.20
2023-05-01T05:36:27.889Z,2.83
2023-05-01T05:38:55.469Z,3.50
2023-05-01T05:41:22.911Z,3.17
2023-05-01T05:43:54.414Z,3.53
2023-05-01T05:46:21.614Z,3.47
2023-05-01T05:48:48.680Z,3.53
2023-05-01T05:51:15.944Z,3.53
2023-05-01T05:53:42.862Z,3.70
2023-05-01T05:56:10.521Z,3.67
2023-05-01T05:58:39.208Z,3.20
2023-05-01T06:01:09.632Z,3.03
2023-05-01T06:03:38.493Z,3.57
2023-05-01T06:06:06.236Z,4.07
2023-05-01T06:08:35.410Z,3.20
2023-05-01T06:11:03.912Z,3.27
2023-05-01T06:13:30.839Z,3.40
2023-05-01T06:15:58.337Z,3.90
2023-05-01T06:18:26.252Z,3.47
2023-05-01T06:20:54.441Z,3.47
2023-05-01T06:23:21.589Z,3.90
2023-05-01T06:26:10.135Z,3.40
2023-05-01T06:28:37.375Z,3.70
2023-05-01T06:31:05.450Z,3.90
2023-05-01T06:33:36.088Z,3.37
2023-05-01T06:36:14.102Z,3.78
2023-05-01T06:38:44.820Z,3.67
2023-05-01T06:41:11.889Z,4.18
2023-05-01T06:43:38.857Z,4.10
2023-05-01T06:46:05.972Z,4.50
2023-05-01T06:48:32.929Z,3.47
2023-05-01T06:50:59.929Z,3.97
2023-05-01T06:53:26.934Z,3.63
2023-05-01T06:55:54.051Z,3.83
2023-05-01T06:58:24.159Z,3.78
2023-05-01T07:00:54.357Z,3.70
2023-05-01T07:03:21.844Z,4.07
2023-05-01T07:05:49.038Z,3.97
2023-05-01T07:08:16.072Z,3.28
2023-05-01T07:10:43.642Z,3.60
2023-05-01T07:13:10.647Z,3.97
2023-05-01T07:15:37.932Z,3.40
2023-05-01T07:18:06.188Z,3.65
2023-05-01T07:20:35.042Z,3.83
2023-05-01T07:23:02.068Z,3.50
2023-05-01T07:25:30.015Z,3.50
2023-05-01T07:27:57.071Z,4.03
2023-05-01T07:30:24.163Z,4.13
2023-05-01T07:32:51.299Z,3.70
2023-05-01T07:35:18.308Z,3.90
2023-05-01T07:37:45.361Z,3.70
2023-05-01T07:40:12.443Z,4.00
2023-05-01T07:42:39.459Z,3.60
2023-05-01T07:45:08.057Z,3.20
2023-05-01T07:47:35.309Z,3.58
2023-05-01T07:50:03.896Z,3.42
2023-05-01T07:52:30.980Z,3.35
2023-05-01T07:54:58.008Z,3.55
2023-05-01T07:57:25.208Z,3.72
2023-05-01T07:59:56.838Z,3.63
2023-05-01T08:02:24.808Z,3.53
2023-05-01T08:04:53.228Z,3.72
2023-05-01T08:07:22.749Z,3.20
2023-05-01T08:09:49.707Z,3.60
2023-05-01T08:12:16.716Z,3.05
2023-05-01T08:14:43.811Z,3.50
2023-05-01T08:17:10.794Z,3.33
2023-05-01T08:19:37.743Z,3.70
2023-05-01T08:22:04.667Z,3.70
2023-05-01T08:24:31.620Z,3.50
2023-05-01T08:26:58.728Z,3.53
2023-05-01T08:29:25.797Z,3.42
2023-05-01T08:31:52.793Z,3.38
2023-05-01T08:34:19.870Z,3.45
2023-05-01T08:36:46.884Z,4.00
2023-05-01T08:39:15.237Z,3.70
2023-05-01T08:41:47.385Z,3.70
2023-05-01T08:44:18.734Z,4.00
2023-05-01T08:47:07.344Z,3.45
2023-05-01T08:49:36.504Z,3.22
2023-05-01T08:52:06.383Z,3.53
2023-05-01T08:54:35.101Z,3.67
2023-05-01T08:57:04.502Z,3.42
2023-05-01T08:59:35.953Z,4.03
2023-05-01T09:02:06.813Z,4.15
2023-05-01T09:04:40.542Z,3.75
2023-05-01T09:07:09.740Z,3.50
2023-05-01T09:09:37.113Z,3.90
2023-05-01T09:12:25.303Z,3.80
2023-05-01T09:14:57.067Z,3.35
2023-05-01T09:17:24.880Z,3.42
2023-05-01T09:19:53.184Z,3.63
2023-05-01T09:22:21.421Z,3.88
2023-05-01T09:24:48.718Z,3.92
2023-05-01T09:27:16.271Z,4.03
2023-05-01T09:29:46.616Z,4.30
2023-05-01T09:32:21.481Z,3.67
2023-05-01T09:34:50.494Z,3.78
2023-05-01T09:37:33.035Z,3.72
2023-05-01T09:40:12.012Z,4.00
2023-05-01T09:42:51.494Z,3.60
2023-05-01T09:45:19.971Z,3.65
2023-05-01T09:47:47.790Z,3.92
2023-05-01T09:50:33.187Z,3.90
2023-05-01T09:53:06.414Z,4.40
2023-05-01T09:55:34.783Z,4.32
2023-05-01T09:58:02.226Z,4.32
2023-05-01T10:00:30.922Z,4.80
2023-05-01T10:02:58.441Z,4.30
2023-05-01T10:05:26.288Z,4.05
2023-05-01T10:07:57.371Z,4.50
2023-05-01T10:10:24.572Z,4.60
2023-05-01T10:12:52.089Z,5.05
2023-05-01T10:15:26.702Z,4.20
2023-05-01T10:17:55.612Z,3.88
2023-05-01T10:20:22.845Z,4.30
2023-05-01T10:22:49.996Z,4.07
2023-05-01T10:25:18.195Z,4.03
2023-05-01T10:27:45.675Z,4.07
2023-05-01T10:30:12.837Z,4.10
2023-05-01T10:32:42.436Z,3.97
2023-05-01T10:35:20.005Z,3.95
2023-05-01T10:37:51.614Z,4.30
2023-05-01T10:40:49.017Z,4.70
2023-05-01T10:43:27.847Z,4.90
2023-05-01T10:46:10.145Z,4.28
2023-05-01T10:48:43.805Z,4.75
2023-05-01T10:51:27.812Z,5.20
2023-05-01T10:54:16.608Z,4.45
2023-05-01T10:56:44.244Z,4.47
2023-05-01T10:59:13.278Z,4.53
2023-05-01T11:01:43.258Z,4.60
2023-05-01T11:04:22.313Z,4.93
2023-05-01T11:07:08.608Z,4.63
2023-05-01T11:09:41.732Z,5.00
2023-05-01T11:12:11.751Z,4.32
2023-05-01T11:14:54.320Z,4.47
2023-05-01T11:17:39.936Z,5.03
2023-05-01T11:20:08.467Z,5.13
2023-05-01T11:22:37.663Z,4.80
2023-05-01T11:25:22.705Z,4.80
2023-05-01T11:27:56.733Z,4.38
2023-05-01T11:30:24.266Z,5.32
2023-05-01T11:32:52.526Z,4.90
2023-05-01T11:35:29.322Z,4.15
2023-05-01T11:37:56.555Z,4.00
2023-05-01T11:40:26.009Z,4.10
2023-05-01T11:43:05.256Z,4.68
2023-05-01T11:45:34.190Z,4.38
2023-05-01T11:48:04.602Z,4.10
2023-05-01T11:50:35.596Z,4.07
2023-05-01T11:53:17.258Z,4.05
2023-05-01T11:55:45.144Z,4.25
2023-05-01T11:58:12.834Z,4.10
2023-05-01T12:00:44.023Z,3.70
2023-05-01T12:03:15.712Z,4.07
2023-05-01T12:05:45.487Z,3.13
2023-05-01T12:08:18.880Z,3.25
2023-05-01T12:10:57.471Z,3.63
2023-05-01T12:13:26.957Z,4.63
2023-05-01T12:15:56.019Z,4.25
2023-05-01T12:18:23.577Z,5.05
2023-05-01T12:20:54.302Z,4.47
2023-05-01T12:23:36.016Z,5.25
2023-05-01T12:26:21.354Z,4.97
2023-05-01T12:29:00.802Z,5.32
2023-05-01T12:31:29.734Z,4.40
2023-05-01T12:34:06.825Z,4.80
2023-05-01T12:36:36.476Z,4.95
2023-05-01T12:39:09.668Z,5.18
2023-05-01T12:41:49.379Z,4.63
2023-05-01T12:44:27.364Z,4.18
2023-05-01T12:47:07.962Z,3.80
2023-05-01T12:49:37.496Z,3.80
2023-05-01T12:52:07.962Z,3.78
2023-05-01T12:54:43.196Z,3.83
2023-05-01T12:57:12.247Z,4.22
2023-05-01T12:59:41.733Z,3.95
2023-05-01T13:02:16.021Z,4.00
2023-05-01T13:04:49.221Z,3.65
2023-05-01T13:07:19.352Z,3.22
2023-05-01T13:09:59.187Z,4.18
2023-05-01T13:12:28.563Z,5.28
2023-05-01T13:14:56.446Z,4.68
2023-05-01T13:17:32.695Z,4.20
2023-05-01T13:20:05.433Z,4.00
2023-05-01T13:22:36.141Z,4.65
2023-05-01T13:25:22.496Z,3.97
2023-05-01T13:27:53.752Z,3.53
2023-05-01T13:30:32.824Z,3.58
2023-05-01T13:33:00.848Z,3.33
2023-05-01T13:35:28.244Z,3.78
2023-05-01T13:37:55.724Z,2.90
2023-05-01T13:40:26.241Z,2.60
2023-05-01T13:42:54.242Z,3.50
2023-05-01T13:45:21.665Z,3.50
2023-05-01T13:47:52.182Z,3.45
2023-05-01T13:50:19.597Z,2.67
2023-05-01T13:52:47.504Z,2.58
2023-05-01T13:55:17.635Z,2.40
2023-05-01T13:57:45.050Z,2.67
2023-05-01T14:00:17.717Z,2.53
2023-05-01T14:02:48.646Z,2.75
2023-05-01T14:05:23.610Z,2.05
2023-05-01T14:07:56.877Z,2.05
2023-05-01T14:10:27.958Z,1.70
2023-05-01T14:12:59.365Z,1.80
2023-05-01T14:15:28.862Z,1.85
2023-05-01T14:17:55.925Z,1.60
2023-05-01T14:20:25.880Z,1.73
2023-05-01T14:22:53.775Z,1.75
2023-05-01T14:25:28.755Z,1.77
2023-05-01T14:28:04.025Z,1.70
2023-05-01T14:30:38.367Z,1.77
2023-05-01T14:33:12.986Z,1.50
2023-05-01T14:35:54.117Z,1.83
2023-05-01T14:38:22.623Z,1.80
2023-05-01T14:40:50.794Z,2.05
2023-05-01T14:43:21.759Z,1.67
2023-05-01T14:45:52.705Z,1.42
2023-05-01T14:48:33.279Z,1.60
2023-05-01T14:51:00.926Z,1.40
2023-05-01T14:53:33.071Z,1.40
2023-05-01T14:56:00.521Z,1.70
2023-05-01T14:58:27.511Z,1.60
2023-05-01T15:00:55.183Z,1.65
2023-05-01T15:03:22.287Z,1.25
2023-05-01T15:05:49.412Z,1.40
2023-05-01T15:08:16.786Z,1.58
2023-05-01T15:10:45.193Z,1.58
2023-05-01T15:13:12.625Z,1.70
2023-05-01T15:15:39.791Z,1.65
2023-05-01T15:18:07.503Z,1.75
2023-05-01T15:20:35.999Z,1.73
2023-05-01T15:23:02.988Z,2.00
2023-05-01T15:25:30.073Z,2.10
2023-05-01T15:27:57.219Z,1.98
2023-05-01T15:30:25.285Z,2.20
2023-05-01T15:32:53.948Z,2.28
2023-05-01T15:35:21.697Z,1.92
2023-05-01T15:37:48.820Z,2.88
2023-05-01T15:40:16.883Z,2.10
2023-05-01T15:42:48.075Z,2.90
2023-05-01T15:45:15.489Z,3.20
2023-05-01T15:47:42.600Z,2.80
2023-05-01T15:50:12.027Z,3.17
2023-05-01T15:52:39.761Z,3.28
2023-05-01T15:55:07.398Z,3.47
2023-05-01T15:57:35.137Z,3.38
2023-05-01T16:00:03.736Z,3.30
2023-05-01T16:02:32.954Z,3.28
2023-05-01T16:05:00.341Z,3.55
2023-05-01T16:07:29.668Z,3.38
2023-05-01T16:09:58.198Z,3.50
2023-05-01T16:12:28.089Z,3.85
2023-05-01T16:14:55.493Z,3.83
2023-05-01T16:17:22.888Z,3.95
2023-05-01T16:19:49.920Z,3.20
2023-05-01T16:22:17.319Z,3.72
2023-05-01T16:24:44.554Z,3.67
2023-05-01T16:27:14.073Z,3.97
2023-05-01T16:29:41.148Z,3.65
2023-05-01T16:32:11.310Z,4.63
2023-05-01T16:34:40.274Z,4.10
2023-05-01T16:37:07.467Z,5.00
2023-05-01T16:39:38.467Z,5.57
2023-05-01T16:42:06.872Z,6.10
2023-05-01T16:44:36.697Z,5.57
2023-05-01T16:47:06.333Z,6.22
2023-05-01T16:49:33.623Z,5.53
2023-05-01T16:52:03.296Z,5.82
2023-05-01T16:54:35.866Z,5.55
2023-05-01T16:57:03.519Z,5.85
2023-05-01T16:59:31.342Z,6.00
2023-05-01T17:01:58.330Z,6.95
2023-05-01T17:04:25.725Z,6.30
2023-05-01T17:06:52.997Z,7.18
2023-05-01T17:09:20.705Z,7.03
2023-05-01T17:11:59.026Z,6.70
2023-05-01T17:14:28.653Z,7.18
2023-05-01T17:16:56.240Z,6.95
2023-05-01T17:19:23.421Z,6.45
2023-05-01T17:21:50.673Z,6.03
2023-05-01T17:24:17.653Z,5.50
2023-05-01T17:26:44.582Z,5.68
2023-05-01T17:29:11.517Z,6.22
2023-05-01T17:31:38.541Z,7.10
2023-05-01T17:34:05.648Z,5.95
2023-05-01T17:36:32.636Z,6.45
2023-05-01T17:39:01.379Z,7.00
2023-05-01T17:41:28.422Z,6.80
2023-05-01T17:43:56.176Z,5.63
2023-05-01T17:46:23.249Z,5.68
2023-05-01T17:48:54.496Z,6.43
2023-05-01T17:51:21.896Z,5.60
2023-05-01T17:53:48.833Z,5.57
2023-05-01T17:56:16.993Z,6.47
2023-05-01T17:58:44.048Z,6.65
2023-05-01T18:01:11.074Z,6.75
2023-05-01T18:03:39.093Z,6.20
2023-05-01T18:06:06.560Z,6.55
2023-05-01T18:08:33.981Z,6.25
2023-05-01T18:11:01.713Z,5.70
2023-05-01T18:13:29.965Z,5.55
2023-05-01T18:15:57.307Z,5.88
2023-05-01T18:18:24.642Z,5.97
2023-05-01T18:20:51.774Z,6.45
2023-05-01T18:23:19.059Z,7.25
2023-05-01T18:25:46.570Z,6.07
2023-05-01T18:28:18.905Z,6.60
2023-05-01T18:30:46.288Z,6.30
2023-05-01T18:33:13.688Z,6.38
2023-05-01T18:35:43.044Z,7.25
2023-05-01T18:38:13.313Z,7.18
2023-05-01T18:40:40.965Z,7.68
2023-05-01T18:43:08.274Z,7.25
2023-05-01T18:45:35.508Z,7.30
2023-05-01T18:48:06.679Z,6.90
2023-05-01T18:50:34.209Z,7.00
2023-05-01T18:53:03.524Z,6.43
2023-05-01T18:55:31.215Z,6.93
2023-05-01T18:57:58.322Z,6.32
2023-05-01T19:00:26.714Z,7.20
2023-05-01T19:02:58.550Z,7.72
2023-05-01T19:05:26.118Z,7.40
2023-05-01T19:08:00.928Z,7.82
2023-05-01T19:10:29.156Z,6.68
2023-05-01T19:12:57.286Z,7.88
2023-05-01T19:15:24.753Z,7.65
2023-05-01T19:17:51.799Z,7.35
2023-05-01T19:20:19.382Z,7.72
2023-05-01T19:22:46.439Z,7.85
2023-05-01T19:25:14.576Z,7.70
2023-05-01T19:27:44.686Z,9.20
2023-05-01T19:30:12.116Z,8.20
2023-05-01T19:32:39.506Z,8.88
2023-05-01T19:35:13.941Z,8.18
2023-05-01T19:37:41.209Z,7.83
2023-05-01T19:40:08.863Z,7.97
2023-05-01T19:42:36.552Z,8.27
2023-05-01T19:45:04.370Z,8.53
2023-05-01T19:47:33.022Z,9.15
2023-05-01T19:50:00.396Z,9.07
2023-05-01T19:52:27.647Z,10.30
2023-05-01T19:54:54.621Z,8.83
2023-05-01T19:57:22.136Z,9.27
2023-05-01T19:59:49.071Z,8.73
2023-05-01T20:02:16.313Z,10.70
2023-05-01T20:04:43.271Z,10.10
2023-05-01T20:07:10.222Z,10.07
2023-05-01T20:09:37.107Z,9.63
2023-05-01T20:12:04.332Z,9.60
2023-05-01T20:14:33.523Z,9.03
2023-05-01T20:17:02.743Z,9.37
2023-05-01T20:19:31.662Z,8.87
2023-05-01T20:21:58.908Z,9.43
2023-05-01T20:24:26.279Z,9.90
2023-05-01T20:26:56.297Z,9.60
2023-05-01T20:29:23.243Z,10.43
2023-05-01T20:31:51.558Z,9.87
2023-05-01T20:34:19.870Z,10.53
2023-05-01T20:36:47.404Z,11.33
2023-05-01T20:39:14.485Z,11.80
2023-05-01T20:41:41.531Z,12.53
2023-05-01T20:44:09.063Z,14.93
2023-05-01T20:46:36.394Z,14.27
2023-05-01T20:49:06.092Z,13.90
2023-05-01T20:51:33.142Z,14.83
2023-05-01T20:54:00.117Z,14.10
2023-05-01T20:56:27.152Z,15.43
2023-05-01T20:58:54.463Z,15.10
2023-05-01T21:01:21.849Z,15.03
2023-05-01T21:03:48.862Z,15.00
2023-05-01T21:06:16.068Z,16.33
2023-05-01T21:08:43.135Z,17.20
2023-05-01T21:11:10.573Z,15.57
2023-05-01T21:13:37.696Z,17.47
2023-05-01T21:16:09.666Z,16.47
2023-05-01T21:18:36.706Z,16.40
2023-05-01T21:21:03.819Z,15.80
2023-05-01T21:23:30.995Z,14.17
2023-05-01T21:25:58.038Z,14.57
2023-05-01T21:28:25.127Z,14.27
2023-05-01T21:30:53.170Z,14.77
2023-05-01T21:33:20.399Z,14.63
2023-05-01T21:35:48.208Z,14.30
2023-05-01T21:38:16.265Z,15.43
2023-05-01T21:40:46.158Z,16.40
2023-05-01T21:43:13.389Z,16.47
2023-05-01T21:45:44.371Z,18.87
2023-05-01T21:48:15.757Z,18.13
2023-05-01T21:50:43.306Z,19.87
2023-05-01T21:53:10.334Z,19.17
2023-05-01T21:55:38.711Z,19.50
2023-05-01T21:58:06.795Z,18.80
2023-05-01T22:00:34.111Z,19.90
2023-05-01T22:03:07.178Z,19.83
2023-05-01T22:05:34.965Z,19.10
2023-05-01T22:08:02.040Z,21.07
2023-05-01T22:10:30.345Z,21.17
2023-05-01T22:12:57.595Z,20.43
2023-05-01T22:15:24.928Z,21.67
2023-05-01T22:17:52.237Z,21.47
2023-05-01T22:20:19.187Z,21.30
2023-05-01T22:22:46.470Z,20.80
2023-05-01T22:25:13.503Z,19.97
2023-05-01T22:27:40.909Z,20.63
2023-05-01T22:30:09.198Z,21.57
2023-05-01T22:32:37.548Z,21.10
2023-05-01T22:35:05.287Z,21.40
2023-05-01T22:37:32.227Z,19.73
2023-05-01T22:39:59.676Z,19.63
2023-05-01T22:42:26.995Z,22.27
2023-05-01T22:44:53.875Z,21.70
2023-05-01T22:47:20.940Z,18.17
2023-05-01T22:49:47.987Z,19.17
2023-05-01T22:52:15.467Z,17.10
2023-05-01T22:54:42.440Z,18.83
2023-05-01T22:57:10.328Z,18.10
2023-05-01T22:59:39.536Z,19.10
2023-05-01T23:02:06.615Z,19.33
2023-05-01T23:04:33.602Z,19.47
2023-05-01T23:07:00.683Z,18.30
2023-05-01T23:09:30.716Z,18.43
2023-05-01T23:11:57.694Z,18.63
2023-05-01T23:14:25.766Z,18.20
2023-05-01T23:16:55.351Z,19.57
2023-05-01T23:19:24.899Z,19.47
2023-05-01T23:22:07.017Z,18.60
2023-05-01T23:24:48.207Z,19.13
2023-05-01T23:27:20.062Z,19.13
2023-05-01T23:29:58.754Z,19.10
2023-05-01T23:32:30.406Z,18.30
2023-05-01T23:35:12.531Z,18.90
2023-05-01T23:37:39.553Z,19.97
2023-05-01T23:40:08.516Z,17.40
2023-05-01T23:42:37.686Z,18.57
2023-05-01T23:45:09.493Z,16.47
2023-05-01T23:47:38.760Z,16.70
2023-05-01T23:50:07.454Z,16.30
2023-05-01T23:52:34.811Z,17.20
2023-05-01T23:55:01.926Z,16.37
2023-05-01T23:57:55.294Z,15.10
